Time;durP1;ratioP1;P1;durP2;ratioP2;P2;SDS_P1;SDS_P2;PMS_P1;PMS_P2;Temp;Humidity;BMP_temperature;BMP_pressure;BME280_temperature;BME280_humidity;BME280_pressure;Samples;Min_cycle;Max_cycle;Signal;HPM_P1;HPM_P2
2023/02/07 00:00:42;;;;;;;;;;;;;;;1.52;75.60;103813.37;107172;1260;123897;-86
2023/02/07 00:03:28;;;;;;;;;;;;;;;1.48;75.49;103813.11;107201;1262;67142;-86
2023/02/07 00:05:54;;;;;;;;;;;;;;;1.44;75.69;103815.54;107323;1257;124272;-84
2023/02/07 00:08:20;;;;;;;;;;;;;;;1.42;75.68;103819.81;107123;1260;59805;-85
2023/02/07 00:10:47;;;;;;;;;;;;;;;1.41;75.71;103822.12;107324;1255;124979;-84
2023/02/07 00:13:14;;;;;;;;;;;;;;;1.37;75.50;103821.71;107273;1257;61496;-86
2023/02/07 00:15:41;;;;;;;;;;;;;;;1.37;75.88;103825.71;107361;1260;65195;-87
2023/02/07 00:18:07;;;;;;;;;;;;;;;1.40;75.72;103823.33;107269;1257;124761;-86
2023/02/07 00:20:34;;;;;;;;;;;;;;;1.40;75.95;103820.86;107361;1255;61167;-87
2023/02/07 00:23:01;;;;;;;;;;;;;;;1.38;75.64;103818.48;107152;1256;124832;-84
2023/02/07 00:25:27;;;;;;;;;;;;;;;1.34;75.53;103821.34;107304;1257;73156;-86
2023/02/07 00:27:54;;;;;;;;;;;;;;;1.33;75.80;103820.98;107444;1259;61247;-86
2023/02/07 00:30:20;;;;;;;;;;;;;;;1.32;75.73;103820.31;107340;1257;124365;-87
2023/02/07 00:32:46;;;;;;;;;;;;;;;1.31;75.58;103829.82;107369;1258;61346;-86
2023/02/07 00:35:13;;;;;;;;;;;;;;;1.28;75.52;103830.88;107249;1257;124475;-86
2023/02/07 00:37:39;;;;;;;;;;;;;;;1.29;75.69;103832.61;107189;1259;61336;-85
2023/02/07 00:40:06;;;;;;;;;;;;;;;1.30;75.64;103836.85;107434;1257;61385;-86
2023/02/07 00:42:32;;;;;;;;;;;;;;;1.30;75.75;103838.08;107509;1257;124790;-85
2023/02/07 00:44:58;;;;;;;;;;;;;;;1.29;75.48;103843.33;107399;1254;61307;-85
2023/02/07 00:47:25;;;;;;;;;;;;;;;1.25;75.47;103841.39;107513;1257;125036;-84
2023/02/07 00:49:52;;;;;;;;;;;;;;;1.16;75.43;103839.58;107529;1257;59696;-84
2023/02/07 00:52:18;;;;;;;;;;;;;;;1.08;75.34;103828.63;107886;1254;59794;-84
2023/02/07 00:54:44;;;;;;;;;;;;;;;1.01;75.30;103824.72;107743;1256;125095;-85
2023/02/07 00:57:11;;;;;;;;;;;;;;;0.98;75.28;103820.78;107767;1255;62224;-86
2023/02/07 00:59:37;;;;;;;;;;;;;;;0.96;75.47;103820.49;107318;1257;125556;-85
2023/02/07 01:02:03;;;;;;;;;;;;;;;0.98;75.65;103821.31;107231;1254;61206;-86
2023/02/07 01:04:29;;;;;;;;;;;;;;;1.02;75.74;103815.39;107472;1256;59638;-86
2023/02/07 01:06:58;;;;;;;;;;;;;;;1.06;75.57;103811.62;107185;1263;124643;-85
2023/02/07 01:09:24;;;;;;;;;;;;;;;1.07;75.76;103808.27;107608;1256;61365;-85
2023/02/07 01:11:51;;;;;;;;;;;;;;;1.06;75.70;103802.89;107056;1255;125244;-87
2023/02/07 01:14:17;;;;;;;;;;;;;;;1.07;75.66;103797.98;107281;1258;60274;-86
2023/02/07 01:16:45;;;;;;;;;;;;;;;1.11;75.75;103795.66;107388;1256;61454;-86
2023/02/07 01:19:13;;;;;;;;;;;;;;;1.13;75.77;103790.09;107366;1257;72573;-86
2023/02/07 01:21:43;;;;;;;;;;;;;;;1.13;75.66;103787.05;107377;1257;61304;-86
2023/02/07 01:24:10;;;;;;;;;;;;;;;1.09;75.50;103791.45;107680;1255;123916;-79
2023/02/07 01:26:36;;;;;;;;;;;;;;;1.07;75.56;103792.05;108045;1256;60266;-79
2023/02/07 01:29:02;;;;;;;;;;;;;;;1.05;75.68;103792.31;107977;1257;124256;-86
2023/02/07 01:31:29;;;;;;;;;;;;;;;1.03;75.61;103798.02;108023;1257;61372;-79
2023/02/07 01:33:56;;;;;;;;;;;;;;;1.00;75.52;103807.14;107965;1260;61352;-79
2023/02/07 01:36:22;;;;;;;;;;;;;;;0.95;75.54;103808.91;107800;1256;128085;-79
2023/02/07 01:38:50;;;;;;;;;;;;;;;0.92;75.69;103809.08;108029;1256;61129;-79
2023/02/07 01:41:16;;;;;;;;;;;;;;;0.91;75.66;103809.58;107980;1256;125739;-79
2023/02/07 01:43:56;;;;;;;;;;;;;;;0.89;75.52;103804.55;108862;1255;59413;-80
2023/02/07 01:46:25;;;;;;;;;;;;;;;0.87;75.66;103803.35;108689;1257;59281;-80
2023/02/07 01:48:51;;;;;;;;;;;;;;;0.87;75.75;103802.61;108739;1254;125652;-80
2023/02/07 01:51:18;;;;;;;;;;;;;;;0.88;75.79;103797.23;108842;1258;59302;-80
2023/02/07 01:53:44;;;;;;;;;;;;;;;0.92;75.80;103798.90;108849;1254;125266;-80
2023/02/07 01:56:11;;;;;;;;;;;;;;;0.94;75.70;103801.85;108868;1254;59460;-80
2023/02/07 01:58:37;;;;;;;;;;;;;;;0.94;75.82;103802.58;108745;1254;59346;-79
2023/02/07 02:01:05;;;;;;;;;;;;;;;0.95;75.65;103805.13;108907;1254;124423;-79
2023/02/07 02:03:31;;;;;;;;;;;;;;;0.97;75.77;103806.30;108812;1256;75366;-80
2023/02/07 02:05:58;;;;;;;;;;;;;;;1.01;75.83;103814.60;108827;1255;125116;-79
2023/02/07 02:08:24;;;;;;;;;;;;;;;1.06;75.64;103819.58;108885;1256;59235;-78
2023/02/07 02:10:54;;;;;;;;;;;;;;;1.05;75.51;103818.27;108803;1256;124867;-80
2023/02/07 02:13:23;;;;;;;;;;;;;;;1.06;75.61;103813.76;108919;1257;59365;-78
2023/02/07 02:15:53;;;;;;;;;;;;;;;1.11;75.73;103815.19;109139;1254;74729;-78
2023/02/07 02:18:40;;;;;;;;;;;;;;;1.13;75.72;103810.66;108813;1260;124172;-77
2023/02/07 02:21:19;;;;;;;;;;;;;;;1.10;75.43;103807.79;108879;1256;74145;-79
2023/02/07 02:23:52;;;;;;;;;;;;;;;1.03;75.27;103802.17;108837;1259;124491;-78
2023/02/07 02:26:24;;;;;;;;;;;;;;;0.99;75.55;103797.55;108685;1255;59856;-78
2023/02/07 02:28:50;;;;;;;;;;;;;;;0.97;75.43;103794.89;108819;1255;125302;-79
2023/02/07 02:31:19;;;;;;;;;;;;;;;0.95;75.46;103791.90;108933;1256;59281;-78
2023/02/07 02:33:55;;;;;;;;;;;;;;;0.94;75.67;103785.39;109037;1256;72963;-78
2023/02/07 02:36:28;;;;;;;;;;;;;;;0.96;75.66;103782.67;108699;1257;124980;-79
2023/02/07 02:39:02;;;;;;;;;;;;;;;0.98;75.59;103779.43;108909;1256;59095;-78
2023/02/07 02:41:44;;;;;;;;;;;;;;;0.97;75.57;103781.92;108692;1255;124931;-78
2023/02/07 02:44:17;;;;;;;;;;;;;;;0.94;75.46;103776.73;108846;1255;67053;-78
2023/02/07 02:46:44;;;;;;;;;;;;;;;0.92;75.57;103779.96;108854;1257;71047;-78
2023/02/07 02:49:10;;;;;;;;;;;;;;;0.93;75.70;103786.25;108727;1257;124051;-78
2023/02/07 02:51:37;;;;;;;;;;;;;;;0.92;75.61;103786.17;108910;1256;59477;-78
2023/02/07 02:54:03;;;;;;;;;;;;;;;0.94;75.76;103789.55;108769;1257;124815;-78
2023/02/07 02:56:39;;;;;;;;;;;;;;;0.97;75.85;103783.17;109071;1257;59398;-78
2023/02/07 02:59:24;;;;;;;;;;;;;;;1.00;75.77;103781.88;108803;1257;124291;-78
2023/02/07 03:01:51;;;;;;;;;;;;;;;1.01;75.76;103780.60;109051;1255;59317;-79
2023/02/07 03:04:40;;;;;;;;;;;;;;;1.00;75.77;103779.73;108947;1257;59395;-78
2023/02/07 03:07:14;;;;;;;;;;;;;;;0.99;75.62;103783.73;108627;1254;125151;-78
2023/02/07 03:10:00;;;;;;;;;;;;;;;0.96;75.60;103787.60;108925;1259;67071;-79
2023/02/07 03:12:47;;;;;;;;;;;;;;;0.95;75.43;103797.47;108772;1256;124610;-78
2023/02/07 03:15:18;;;;;;;;;;;;;;;0.91;75.50;103800.86;108819;1259;59375;-78
2023/02/07 03:17:59;;;;;;;;;;;;;;;0.88;75.58;103801.80;108824;1257;125081;-78
2023/02/07 03:20:27;;;;;;;;;;;;;;;0.89;75.80;103800.61;108878;1257;73275;-78
2023/02/07 03:22:53;;;;;;;;;;;;;;;0.90;75.67;103795.58;108789;1257;125434;-85
2023/02/07 03:25:20;;;;;;;;;;;;;;;0.91;75.77;103791.09;108917;1258;59537;-85
2023/02/07 03:27:46;;;;;;;;;;;;;;;0.93;75.66;103786.55;107300;1260;61127;-86
2023/02/07 03:30:13;;;;;;;;;;;;;;;0.97;76.05;103783.14;107233;1254;123964;-84
2023/02/07 03:32:41;;;;;;;;;;;;;;;0.99;75.79;103775.02;107378;1257;73831;-84
2023/02/07 03:35:15;;;;;;;;;;;;;;;1.01;75.96;103768.84;107979;1258;124534;-84
2023/02/07 03:37:50;;;;;;;;;;;;;;;1.02;75.99;103767.60;107459;1257;72766;-85
2023/02/07 03:40:16;;;;;;;;;;;;;;;1.07;76.04;103760.86;107368;1260;59771;-84
2023/02/07 03:42:47;;;;;;;;;;;;;;;1.11;76.12;103761.41;107251;1254;124346;-84
2023/02/07 03:45:14;;;;;;;;;;;;;;;1.13;75.99;103761.65;107542;1257;75035;-85
2023/02/07 03:47:41;;;;;;;;;;;;;;;1.14;76.02;103764.45;107312;1256;124149;-85
2023/02/07 03:50:08;;;;;;;;;;;;;;;1.15;75.94;103756.11;107663;1263;61295;-85
2023/02/07 03:52:34;;;;;;;;;;;;;;;1.16;75.92;103752.08;107704;1257;61151;-84
2023/02/07 03:55:01;;;;;;;;;;;;;;;1.15;75.87;103746.66;107603;1259;124024;-84
2023/02/07 03:57:27;;;;;;;;;;;;;;;1.13;75.83;103745.17;107794;1259;62473;-84
2023/02/07 03:59:53;;;;;;;;;;;;;;;1.10;75.75;103745.86;107332;1258;124332;-84
2023/02/07 04:02:20;;;;;;;;;;;;;;;1.06;75.77;103743.48;107481;1260;61262;-84
2023/02/07 04:04:46;;;;;;;;;;;;;;;1.04;75.75;103738.98;107409;1259;125448;-83
2023/02/07 04:07:12;;;;;;;;;;;;;;;1.04;75.99;103734.36;107513;1254;61180;-84
2023/02/07 04:09:40;;;;;;;;;;;;;;;1.05;75.82;103728.67;107465;1256;59971;-85
2023/02/07 04:12:11;;;;;;;;;;;;;;;1.04;75.80;103723.70;107357;1254;125250;-85
2023/02/07 04:14:40;;;;;;;;;;;;;;;0.99;75.63;103724.23;107388;1254;71446;-85
2023/02/07 04:17:06;;;;;;;;;;;;;;;0.88;75.51;103723.73;107488;1259;125889;-85
2023/02/07 04:19:32;;;;;;;;;;;;;;;0.74;75.35;103718.17;107343;1262;61129;-86
2023/02/07 04:21:59;;;;;;;;;;;;;;;0.59;75.25;103721.02;107573;1256;61035;-86
2023/02/07 04:24:30;;;;;;;;;;;;;;;0.46;75.28;103714.10;107145;1258;124594;-85
2023/02/07 04:27:02;;;;;;;;;;;;;;;0.33;75.33;103719.27;107214;1262;72336;-84
2023/02/07 04:29:29;;;;;;;;;;;;;;;0.23;75.50;103716.69;106966;1255;125423;-84
2023/02/07 04:31:58;;;;;;;;;;;;;;;0.12;75.47;103723.98;107321;1260;59297;-85
2023/02/07 04:34:25;;;;;;;;;;;;;;;0.02;75.58;103728.30;107508;1255;73487;-85
2023/02/07 04:36:51;;;;;;;;;;;;;;;-0.10;75.67;103729.23;107595;1257;125998;-84
2023/02/07 04:39:17;;;;;;;;;;;;;;;-0.20;75.69;103726.33;107627;1260;61351;-84
2023/02/07 04:41:46;;;;;;;;;;;;;;;-0.31;75.86;103723.66;107256;1257;125326;-84
2023/02/07 04:44:14;;;;;;;;;;;;;;;-0.42;75.88;103722.05;107281;1254;61247;-86
2023/02/07 04:46:40;;;;;;;;;;;;;;;-0.51;75.99;103716.10;107507;1259;75083;-85
2023/02/07 04:49:06;;;;;;;;;;;;;;;-0.61;76.03;103713.61;107356;1255;124566;-86
2023/02/07 04:51:33;;;;;;;;;;;;;;;-0.68;76.15;103718.09;107481;1255;59835;-87
2023/02/07 04:54:01;;;;;;;;;;;;;;;-0.76;76.20;103715.95;107353;1260;124926;-86
2023/02/07 04:56:28;;;;;;;;;;;;;;;-0.84;76.29;103716.24;107151;1254;61276;-87
2023/02/07 04:58:56;;;;;;;;;;;;;;;-0.91;76.55;103714.52;107191;1254;124936;-87
2023/02/07 05:01:23;;;;;;;;;;;;;;;-0.98;76.60;103713.49;107348;1263;67160;-84
2023/02/07 05:03:50;;;;;;;;;;;;;;;-1.04;76.61;103707.67;107329;1254;73139;-88
2023/02/07 05:06:17;;;;;;;;;;;;;;;-1.09;76.86;103707.85;107088;1260;124970;-87
2023/02/07 05:08:43;;;;;;;;;;;;;;;-1.15;76.81;103711.89;107254;1254;61279;-85
2023/02/07 05:11:10;;;;;;;;;;;;;;;-1.19;77.15;103711.02;107262;1260;124919;-87
2023/02/07 05:13:36;;;;;;;;;;;;;;;-1.25;77.08;103709.98;107253;1255;61196;-86
2023/02/07 05:16:34;;;;;;;;;;;;;;;-1.32;77.11;103705.32;107295;1260;61142;-86
2023/02/07 05:19:00;;;;;;;;;;;;;;;-1.39;77.21;103696.80;107049;1260;124423;-88
2023/02/07 05:21:26;;;;;;;;;;;;;;;-1.47;77.26;103695.11;107838;1254;59676;-79
2023/02/07 05:23:53;;;;;;;;;;;;;;;-1.54;77.41;103696.50;107828;1254;124296;-79
2023/02/07 05:26:19;;;;;;;;;;;;;;;-1.59;77.62;103691.73;107789;1256;61158;-78
2023/02/07 05:28:47;;;;;;;;;;;;;;;-1.65;77.54;103687.63;107852;1253;59533;-78
2023/02/07 05:31:15;;;;;;;;;;;;;;;-1.71;77.61;103683.05;108359;1256;61246;-80
2023/02/07 05:33:41;;;;;;;;;;;;;;;-1.79;77.68;103684.45;107596;1260;59315;-78
2023/02/07 05:36:08;;;;;;;;;;;;;;;-1.85;77.60;103689.30;107488;1258;125361;-78
2023/02/07 05:38:34;;;;;;;;;;;;;;;-1.93;77.49;103699.45;107607;1258;61277;-78
2023/02/07 05:41:00;;;;;;;;;;;;;;;-2.00;77.60;103702.66;107581;1260;124698;-78
2023/02/07 05:43:27;;;;;;;;;;;;;;;-2.06;77.88;103704.92;107789;1254;60075;-79
2023/02/07 05:45:53;;;;;;;;;;;;;;;-2.12;77.82;103709.55;107569;1254;59547;-82
2023/02/07 05:48:22;;;;;;;;;;;;;;;-2.18;77.97;103706.80;107652;1258;125744;-81
2023/02/07 05:50:48;;;;;;;;;;;;;;;-2.22;78.12;103706.30;107672;1254;67067;-80
2023/02/07 05:53:14;;;;;;;;;;;;;;;-2.29;78.08;103708.90;107626;1255;124248;-82
2023/02/07 05:55:41;;;;;;;;;;;;;;;-2.37;77.94;103706.18;107573;1261;61316;-80
2023/02/07 05:58:07;;;;;;;;;;;;;;;-2.41;78.24;103710.98;107766;1255;61195;-80
2023/02/07 06:00:33;;;;;;;;;;;;;;;-2.40;78.69;103706.60;107903;1258;124801;-80
2023/02/07 06:03:00;;;;;;;;;;;;;;;-2.41;78.61;103710.26;107763;1258;61253;-80
2023/02/07 06:05:30;;;;;;;;;;;;;;;-2.44;78.39;103712.63;107752;1260;124913;-81
2023/02/07 06:07:57;;;;;;;;;;;;;;;-2.49;78.54;103722.75;107942;1255;60611;-80
2023/02/07 06:10:23;;;;;;;;;;;;;;;-2.54;78.37;103727.80;107707;1255;60643;-80
2023/02/07 06:12:49;;;;;;;;;;;;;;;-2.59;78.43;103734.31;107690;1258;124699;-78
2023/02/07 06:15:16;;;;;;;;;;;;;;;-2.63;78.59;103733.39;107608;1260;61271;-79
2023/02/07 06:17:42;;;;;;;;;;;;;;;-2.64;78.61;103736.00;107535;1256;124792;-80
2023/02/07 06:20:09;;;;;;;;;;;;;;;-2.67;78.68;103735.98;107866;1257;61218;-79
2023/02/07 06:22:35;;;;;;;;;;;;;;;-2.69;78.84;103735.20;107432;1254;59731;-80
2023/02/07 06:25:02;;;;;;;;;;;;;;;-2.71;78.89;103741.30;107394;1254;124692;-79
2023/02/07 06:27:28;;;;;;;;;;;;;;;-2.74;78.73;103749.01;107705;1254;59666;-80
2023/02/07 06:29:54;;;;;;;;;;;;;;;-2.76;78.80;103756.44;107503;1259;124332;-80
2023/02/07 06:32:21;;;;;;;;;;;;;;;-2.79;78.82;103759.39;107501;1257;59503;-79
2023/02/07 06:34:47;;;;;;;;;;;;;;;-2.81;78.93;103763.08;107560;1254;125623;-80
2023/02/07 06:37:14;;;;;;;;;;;;;;;-2.80;79.04;103767.67;107747;1255;61232;-79
2023/02/07 06:39:41;;;;;;;;;;;;;;;-2.79;78.99;103776.86;108239;1260;65752;-80
2023/02/07 06:42:07;;;;;;;;;;;;;;;-2.79;79.15;103779.81;108722;1255;124971;-80
2023/02/07 06:44:33;;;;;;;;;;;;;;;-2.77;79.16;103774.32;107739;1260;61910;-80
2023/02/07 06:47:00;;;;;;;;;;;;;;;-2.75;79.11;103774.02;107511;1254;125087;-80
2023/02/07 06:49:26;;;;;;;;;;;;;;;-2.72;79.23;103778.82;107817;1258;59567;-80
2023/02/07 06:51:53;;;;;;;;;;;;;;;-2.68;79.10;103779.66;107698;1254;59616;-80
2023/02/07 06:54:23;;;;;;;;;;;;;;;-2.65;79.19;103783.51;107893;1254;127018;-80
2023/02/07 06:56:53;;;;;;;;;;;;;;;-2.60;79.26;103789.25;107497;1254;59801;-87
2023/02/07 06:59:21;;;;;;;;;;;;;;;-2.54;79.25;103794.78;107308;1254;125186;-87
2023/02/07 07:01:47;;;;;;;;;;;;;;;-2.50;79.32;103790.91;107351;1257;73165;-87
2023/02/07 07:04:14;;;;;;;;;;;;;;;-2.44;79.19;103793.14;107214;1254;61108;-88
2023/02/07 07:06:41;;;;;;;;;;;;;;;-2.37;79.34;103791.79;107126;1256;125253;-87
2023/02/07 07:09:12;;;;;;;;;;;;;;;-2.29;79.31;103786.79;107342;1260;61233;-88
2023/02/07 07:11:42;;;;;;;;;;;;;;;-2.24;79.21;103779.27;107108;1260;124900;-88
2023/02/07 07:14:43;;;;;;;;;;;;;;;-2.19;79.15;103783.17;107260;1254;74763;-88
2023/02/07 07:17:10;;;;;;;;;;;;;;;-2.16;79.10;103781.24;107437;1258;125134;-80
2023/02/07 07:19:36;;;;;;;;;;;;;;;-2.11;78.97;103777.84;108559;1254;59462;-80
2023/02/07 07:22:04;;;;;;;;;;;;;;;-2.07;78.92;103782.39;108967;1257;59274;-80
2023/02/07 07:24:30;;;;;;;;;;;;;;;-2.00;78.98;103790.86;107572;1254;125388;-80
2023/02/07 07:26:56;;;;;;;;;;;;;;;-1.90;79.10;103798.88;107575;1254;61260;-80
2023/02/07 07:29:22;;;;;;;;;;;;;;;-1.81;79.07;103794.36;107660;1259;125940;-80
2023/02/07 07:31:50;;;;;;;;;;;;;;;-1.73;78.83;103792.48;108989;1254;59247;-80
2023/02/07 07:34:19;;;;;;;;;;;;;;;-1.69;78.86;103788.36;108860;1254;59095;-80
2023/02/07 07:36:55;;;;;;;;;;;;;;;-1.64;78.77;103788.00;108738;1254;126381;-80
2023/02/07 07:39:22;;;;;;;;;;;;;;;-1.58;78.65;103790.17;107975;1260;73401;-81
2023/02/07 07:41:48;;;;;;;;;;;;;;;-1.52;78.63;103796.14;107469;1255;124953;-80
2023/02/07 07:44:15;;;;;;;;;;;;;;;-1.42;78.68;103800.98;107794;1260;59495;-80
2023/02/07 07:46:41;;;;;;;;;;;;;;;-1.37;78.72;103803.70;107991;1254;59701;-80
2023/02/07 07:49:07;;;;;;;;;;;;;;;-1.30;78.72;103799.23;107389;1254;125401;-80
2023/02/07 07:51:34;;;;;;;;;;;;;;;-1.21;78.79;103800.66;107249;1257;61276;-80
2023/02/07 07:54:01;;;;;;;;;;;;;;;-1.13;78.44;103802.21;108044;1257;124078;-80
2023/02/07 07:56:31;;;;;;;;;;;;;;;-1.10;78.56;103798.48;108997;1254;59133;-87
2023/02/07 07:59:01;;;;;;;;;;;;;;;-1.04;78.58;103795.53;107186;1254;124429;-88
2023/02/07 08:01:28;;;;;;;;;;;;;;;-0.98;78.51;103796.64;107208;1257;61104;-80
2023/02/07 08:03:54;;;;;;;;;;;;;;;-0.94;78.42;103804.47;107625;1256;59652;-80
2023/02/07 08:06:21;;;;;;;;;;;;;;;-0.91;78.39;103803.36;108734;1254;125045;-81
2023/02/07 08:08:50;;;;;;;;;;;;;;;-0.89;78.31;103803.40;107462;1257;70714;-80
2023/02/07 08:11:16;;;;;;;;;;;;;;;-0.85;78.29;103804.25;107522;1254;124995;-80
2023/02/07 08:13:42;;;;;;;;;;;;;;;-0.80;78.48;103799.59;107977;1257;60782;-80
2023/02/07 08:16:09;;;;;;;;;;;;;;;-0.75;78.32;103796.00;108126;1254;59486;-80
2023/02/07 08:18:36;;;;;;;;;;;;;;;-0.73;78.35;103796.14;108806;1257;124801;-80
2023/02/07 08:21:03;;;;;;;;;;;;;;;-0.69;78.33;103802.84;108956;1254;59673;-79
2023/02/07 08:23:31;;;;;;;;;;;;;;;-0.63;78.27;103808.73;108976;1254;124223;-79
2023/02/07 08:25:57;;;;;;;;;;;;;;;-0.58;78.40;103807.41;107506;1257;60037;-82
2023/02/07 08:28:23;;;;;;;;;;;;;;;-0.51;78.37;103805.10;107497;1254;60330;-80
2023/02/07 08:30:50;;;;;;;;;;;;;;;-0.43;78.64;103803.98;107489;1257;124693;-79
2023/02/07 08:33:16;;;;;;;;;;;;;;;-0.36;78.40;103802.52;107616;1254;59827;-79
2023/02/07 08:35:43;;;;;;;;;;;;;;;-0.34;78.39;103791.79;108725;1254;124894;-80
2023/02/07 08:38:11;;;;;;;;;;;;;;;-0.29;78.22;103790.30;109051;1254;59049;-79
2023/02/07 08:40:38;;;;;;;;;;;;;;;-0.24;78.44;103794.83;108906;1254;74687;-79
2023/02/07 08:43:11;;;;;;;;;;;;;;;-0.20;78.24;103795.90;108897;1254;125604;-79
2023/02/07 08:45:38;;;;;;;;;;;;;;;-0.13;78.39;103797.71;109051;1254;72745;-79
2023/02/07 08:48:04;;;;;;;;;;;;;;;-0.04;78.29;103798.77;108809;1254;125058;-79
2023/02/07 08:50:31;;;;;;;;;;;;;;;0.03;78.27;103796.66;108752;1254;59616;-79
2023/02/07 08:52:59;;;;;;;;;;;;;;;0.09;78.14;103796.85;107249;1257;125333;-87
2023/02/07 08:55:26;;;;;;;;;;;;;;;0.16;78.31;103790.79;107604;1257;65781;-88
2023/02/07 08:57:52;;;;;;;;;;;;;;;0.23;78.31;103785.61;107399;1254;71584;-80
2023/02/07 09:00:20;;;;;;;;;;;;;;;0.27;78.19;103784.07;108442;1254;124819;-87
2023/02/07 09:02:46;;;;;;;;;;;;;;;0.34;77.98;103785.52;107739;1254;61177;-79
2023/02/07 09:05:12;;;;;;;;;;;;;;;0.38;78.23;103782.59;107640;1254;124843;-78
2023/02/07 09:07:39;;;;;;;;;;;;;;;0.44;78.09;103785.77;107420;1254;60469;-80
2023/02/07 09:10:06;;;;;;;;;;;;;;;0.49;78.00;103787.64;107558;1254;61270;-79
2023/02/07 09:12:33;;;;;;;;;;;;;;;0.55;77.99;103788.12;107304;1254;124937;-80
2023/02/07 09:14:59;;;;;;;;;;;;;;;0.63;78.00;103790.86;107586;1254;60689;-80
2023/02/07 09:17:26;;;;;;;;;;;;;;;0.68;77.85;103793.39;107422;1256;124995;-80
2023/02/07 09:19:52;;;;;;;;;;;;;;;0.73;78.02;103795.56;107710;1254;65515;-87
2023/02/07 09:22:18;;;;;;;;;;;;;;;0.84;78.08;103797.58;107651;1254;61276;-87
2023/02/07 09:27:56;;;;;;;;;;;;;;;1.08;77.93;103800.77;107846;1254;59550;-88
2023/02/07 09:30:22;;;;;;;;;;;;;;;1.19;77.95;103793.40;107684;1255;124796;-87
2023/02/07 09:32:49;;;;;;;;;;;;;;;1.29;77.79;103792.98;107309;1255;59658;-87
2023/02/07 09:35:15;;;;;;;;;;;;;;;1.38;77.70;103790.63;107427;1254;124118;-87
2023/02/07 09:37:41;;;;;;;;;;;;;;;1.47;77.54;103793.06;107441;1257;61253;-87
2023/02/07 09:40:09;;;;;;;;;;;;;;;1.57;77.63;103791.70;107661;1256;61266;-87
2023/02/07 09:43:08;;;;;;;;;;;;;;;1.65;77.45;103791.39;107371;1257;124420;-87
2023/02/07 09:45:41;;;;;;;;;;;;;;;1.73;77.32;103794.88;107505;1257;67143;-88
2023/02/07 09:48:25;;;;;;;;;;;;;;;1.82;77.32;103801.05;107209;1258;264026;-87
2023/02/07 09:51:25;;;;;;;;;;;;;;;1.89;77.23;103804.39;107512;1254;61186;-87
2023/02/07 09:53:59;;;;;;;;;;;;;;;1.98;76.97;103807.05;107425;1257;123994;-87
2023/02/07 09:56:26;;;;;;;;;;;;;;;2.03;76.87;103807.67;107499;1254;75921;-88
2023/02/07 09:59:03;;;;;;;;;;;;;;;2.10;76.81;103804.80;107030;1257;125049;-87
2023/02/07 10:01:34;;;;;;;;;;;;;;;2.22;76.90;103799.08;107321;1256;71444;-88
2023/02/07 10:04:05;;;;;;;;;;;;;;;2.47;77.20;103796.11;107353;1256;61160;-88
2023/02/07 10:06:33;;;;;;;;;;;;;;;2.87;77.66;103800.68;107346;1256;124613;-86
2023/02/07 10:09:00;;;;;;;;;;;;;;;3.34;77.72;103801.02;107435;1257;73190;-89
2023/02/07 10:11:26;;;;;;;;;;;;;;;3.79;77.62;103797.48;107426;1254;124966;-88
2023/02/07 10:14:13;;;;;;;;;;;;;;;4.23;77.27;103794.56;107325;1257;61286;-87
2023/02/07 10:16:47;;;;;;;;;;;;;;;4.56;76.71;103779.90;107276;1254;59859;-88
2023/02/07 10:19:21;;;;;;;;;;;;;;;4.82;76.03;103777.91;107534;1256;61256;-89
2023/02/07 10:21:48;;;;;;;;;;;;;;;4.91;75.43;103765.20;107467;1260;74485;-88
2023/02/07 10:24:17;;;;;;;;;;;;;;;5.03;75.24;103763.67;107105;1257;124541;-88
2023/02/07 10:26:56;;;;;;;;;;;;;;;5.08;74.74;103764.72;107228;1256;73171;-88
2023/02/07 10:29:38;;;;;;;;;;;;;;;5.15;74.58;103763.09;107199;1254;124196;-89
2023/02/07 10:32:27;;;;;;;;;;;;;;;5.19;74.23;103762.77;107468;1255;61156;-89
2023/02/07 10:35:00;;;;;;;;;;;;;;;5.20;74.00;103758.86;107186;1254;124436;-88
2023/02/07 10:40:49;;;;;;;;;;;;;;;5.20;73.40;103762.39;107594;1259;71176;-88
2023/02/07 10:43:33;;;;;;;;;;;;;;;5.19;73.45;103765.61;107680;1257;123942;-88
2023/02/07 10:46:07;;;;;;;;;;;;;;;5.17;73.18;103766.40;107701;1257;61234;-89
2023/02/07 10:48:34;;;;;;;;;;;;;;;5.10;73.03;103760.87;107529;1257;124225;-80
2023/02/07 10:51:03;;;;;;;;;;;;;;;5.08;73.05;103751.09;108846;1254;59170;-80
2023/02/07 10:53:46;;;;;;;;;;;;;;;5.09;73.06;103752.55;108096;1254;125206;-81
2023/02/07 10:56:19;;;;;;;;;;;;;;;5.05;72.82;103748.27;107523;1254;61344;-81
2023/02/07 10:58:45;;;;;;;;;;;;;;;5.04;72.92;103750.27;107667;1257;61343;-81
2023/02/07 11:01:19;;;;;;;;;;;;;;;5.04;72.99;103746.39;107398;1257;122951;-81
2023/02/07 11:03:47;;;;;;;;;;;;;;;5.06;72.90;103734.95;107277;1255;65583;-81
2023/02/07 11:06:23;;;;;;;;;;;;;;;5.05;72.76;103728.60;107615;1256;124244;-89
2023/02/07 11:08:50;;;;;;;;;;;;;;;5.04;72.72;103726.55;107523;1254;61260;-89
2023/02/07 11:11:25;;;;;;;;;;;;;;;5.04;72.72;103724.87;107261;1254;124220;-89
2023/02/07 11:13:54;;;;;;;;;;;;;;;5.08;72.68;103725.73;107252;1257;75118;-88
2023/02/07 11:16:21;;;;;;;;;;;;;;;5.07;72.49;103730.36;107328;1254;66917;-89
2023/02/07 11:18:58;;;;;;;;;;;;;;;5.07;72.44;103723.84;107039;1254;123949;-88
2023/02/07 11:21:28;;;;;;;;;;;;;;;5.03;72.26;103716.91;107135;1256;61349;-89
2023/02/07 11:23:56;;;;;;;;;;;;;;;5.06;72.47;103717.40;107358;1257;124389;-88
2023/02/07 11:26:23;;;;;;;;;;;;;;;5.12;72.43;103709.92;107040;1256;74803;-88
2023/02/07 11:29:12;;;;;;;;;;;;;;;5.13;72.27;103707.87;107085;1256;61285;-89
2023/02/07 11:31:39;;;;;;;;;;;;;;;5.14;72.21;103704.56;107244;1255;71317;-88
2023/02/07 11:34:21;;;;;;;;;;;;;;;5.15;72.08;103702.91;107172;1256;62026;-88
2023/02/07 11:36:47;;;;;;;;;;;;;;;5.15;72.06;103703.70;107386;1256;124620;-88
2023/02/07 11:39:17;;;;;;;;;;;;;;;5.18;72.17;103699.39;107281;1254;61218;-88
2023/02/07 11:41:51;;;;;;;;;;;;;;;5.25;72.29;103694.31;107348;1256;125151;-88
2023/02/07 11:44:17;;;;;;;;;;;;;;;5.37;72.28;103691.91;107242;1257;71025;-88
2023/02/07 11:46:49;;;;;;;;;;;;;;;5.43;72.20;103690.51;107289;1259;61375;-90
2023/02/07 11:49:27;;;;;;;;;;;;;;;5.52;72.10;103692.22;107307;1254;61247;-88
2023/02/07 11:51:55;;;;;;;;;;;;;;;5.58;71.82;103693.49;107671;1257;73466;-88
2023/02/07 11:54:22;;;;;;;;;;;;;;;5.58;71.65;103700.10;107452;1256;124194;-89
2023/02/07 11:56:54;;;;;;;;;;;;;;;5.54;71.40;103700.81;107569;1257;72532;-87
2023/02/07 11:59:21;;;;;;;;;;;;;;;5.52;71.43;103697.90;107324;1254;124173;-80
2023/02/07 12:01:58;;;;;;;;;;;;;;;5.53;71.51;103698.28;108919;1254;59670;-79
2023/02/07 12:04:27;;;;;;;;;;;;;;;5.61;71.59;103691.50;108947;1254;74556;-79
2023/02/07 12:06:53;;;;;;;;;;;;;;;5.65;71.45;103687.73;108096;1253;124432;-80
2023/02/07 12:09:41;;;;;;;;;;;;;;;5.68;71.33;103684.94;107516;1254;61307;-87
2023/02/07 12:12:30;;;;;;;;;;;;;;;5.72;71.51;103679.40;107352;1259;124764;-87
2023/02/07 12:14:58;;;;;;;;;;;;;;;5.79;71.33;103676.61;107595;1256;61302;-81
2023/02/07 12:17:39;;;;;;;;;;;;;;;5.76;71.11;103674.27;107230;1256;124271;-86
2023/02/07 12:20:20;;;;;;;;;;;;;;;5.74;71.13;103676.97;107075;1254;66759;-89
2023/02/07 12:23:13;;;;;;;;;;;;;;;5.76;71.10;103680.11;107497;1254;71536;-80
2023/02/07 12:25:46;;;;;;;;;;;;;;;5.71;70.95;103682.65;107485;1256;59663;-80
2023/02/07 12:28:26;;;;;;;;;;;;;;;5.70;70.88;103675.53;107649;1259;61017;-87
2023/02/07 12:30:56;;;;;;;;;;;;;;;5.66;70.95;103677.66;107331;1257;124063;-87
2023/02/07 12:33:33;;;;;;;;;;;;;;;5.65;71.01;103676.20;107301;1256;65210;-88
2023/02/07 12:36:18;;;;;;;;;;;;;;;5.65;70.88;103681.20;107057;1260;124146;-87
2023/02/07 12:38:55;;;;;;;;;;;;;;;5.60;70.89;103683.71;107165;1257;61293;-85
2023/02/07 12:41:24;;;;;;;;;;;;;;;5.62;71.06;103679.96;107479;1256;124049;-87
2023/02/07 12:43:52;;;;;;;;;;;;;;;5.64;70.96;103679.71;107473;1256;73209;-87
2023/02/07 12:46:22;;;;;;;;;;;;;;;5.59;70.86;103678.45;107443;1259;61151;-88
2023/02/07 12:49:08;;;;;;;;;;;;;;;5.54;70.71;103679.48;107181;1256;124626;-88